Time;durP1;ratioP1;P1;durP2;ratioP2;P2;SDS_P1;SDS_P2;PMS_P1;PMS_P2;Temp;Humidity;BMP_temperature;BMP_pressure;BME280_temperature;BME280_humidity;BME280_pressure;Samples;Min_cycle;Max_cycle;Signal;HPM_P1;HPM_P2
2022/07/04 00:00:23;;;;;;;8.05;4.60;;;22.80;52.00;;;;;;5037796;28;20045;-87
2022/07/04 00:02:49;;;;;;;5.70;4.68;;;22.70;52.00;;;;;;5055124;28;20414;-91
2022/07/04 00:05:16;;;;;;;5.72;4.25;;;22.70;52.10;;;;;;5037852;28;20791;-88
2022/07/04 00:07:43;;;;;;;5.57;4.60;;;22.70;52.00;;;;;;5037027;28;20115;-84
2022/07/04 00:10:11;;;;;;;7.32;4.40;;;22.60;52.40;;;;;;5036950;28;20032;-84
2022/07/04 00:12:40;;;;;;;5.35;3.95;;;22.60;52.30;;;;;;5062727;28;20100;-94
2022/07/04 00:15:07;;;;;;;8.32;4.35;;;22.60;52.40;;;;;;5059885;28;20103;-85
2022/07/04 00:17:33;;;;;;;7.20;3.97;;;22.60;52.30;;;;;;5058955;28;20032;-80
2022/07/04 00:19:59;;;;;;;5.43;3.90;;;22.60;52.50;;;;;;5055458;28;20020;-83
2022/07/04 00:22:25;;;;;;;7.05;4.55;;;22.60;52.50;;;;;;5054243;28;20020;-83
2022/07/04 00:24:51;;;;;;;8.15;4.57;;;22.50;52.60;;;;;;5036267;28;20074;-82
2022/07/04 00:27:17;;;;;;;6.22;3.85;;;22.50;52.60;;;;;;5054126;28;20368;-84
2022/07/04 00:29:43;;;;;;;10.60;4.95;;;22.50;52.50;;;;;;5045925;28;20530;-80
2022/07/04 00:32:09;;;;;;;6.53;5.10;;;22.50;52.90;;;;;;5038555;28;20032;-83
2022/07/04 00:34:36;;;;;;;9.90;4.70;;;22.40;52.90;;;;;;5051927;28;20096;-79
2022/07/04 00:37:02;;;;;;;;;;;22.40;53.00;;;;;;5053878;28;20379;-79
2022/07/04 00:39:29;;;;;;;7.20;5.22;;;22.30;52.50;;;;;;5053411;28;19927;-80
2022/07/04 00:41:55;;;;;;;7.78;5.65;;;22.30;53.20;;;;;;5053174;28;20028;-80
2022/07/04 00:44:21;;;;;;;6.03;4.53;;;22.30;53.30;;;;;;5052897;28;20108;-80
2022/07/04 00:46:47;;;;;;;10.90;5.70;;;22.30;53.40;;;;;;5053289;28;20025;-81
2022/07/04 00:49:16;;;;;;;7.83;4.93;;;22.30;53.60;;;;;;5052993;28;20067;-80
2022/07/04 00:51:43;;;;;;;9.55;6.10;;;22.30;53.60;;;;;;5053318;28;20036;-80
2022/07/04 00:54:12;;;;;;;9.05;6.32;;;22.20;53.80;;;;;;5034764;28;20049;-80
2022/07/04 00:56:40;;;;;;;10.15;5.72;;;22.20;54.20;;;;;;5053175;28;20068;-81
2022/07/04 00:59:07;;;;;;;8.95;5.43;;;22.20;54.30;;;;;;5052958;28;20052;-80
2022/07/04 01:01:33;;;;;;;7.60;5.20;;;22.10;54.70;;;;;;5051899;28;20491;-80
2022/07/04 01:03:59;;;;;;;7.60;6.32;;;22.10;54.70;;;;;;5052975;28;20029;-80
2022/07/04 01:06:24;;;;;;;12.23;6.43;;;22.00;54.80;;;;;;5053250;28;20391;-81
2022/07/04 01:08:50;;;;;;;9.10;6.28;;;22.00;54.90;;;;;;5053078;28;20060;-79
2022/07/04 01:11:16;;;;;;;7.05;6.05;;;22.00;55.00;;;;;;5053290;28;20033;-81
2022/07/04 01:13:42;;;;;;;11.07;6.18;;;21.90;55.10;;;;;;5034845;28;20543;-79
2022/07/04 01:16:10;;;;;;;11.32;6.53;;;21.90;55.40;;;;;;5052194;28;20020;-79
2022/07/04 01:18:36;;;;;;;12.25;6.00;;;21.90;55.60;;;;;;5035065;28;20035;-81
2022/07/04 01:21:04;;;;;;;11.02;6.20;;;21.80;55.60;;;;;;5052849;28;20052;-81
2022/07/04 01:23:30;;;;;;;9.07;6.18;;;21.80;55.70;;;;;;5041539;28;20021;-82
2022/07/04 01:25:57;;;;;;;13.77;6.43;;;21.80;55.80;;;;;;5034443;28;20036;-81
2022/07/04 01:28:23;;;;;;;11.32;5.97;;;21.80;56.00;;;;;;5048737;28;20034;-83
2022/07/04 01:30:49;;;;;;;11.88;6.47;;;21.80;56.00;;;;;;5053274;28;20040;-80
2022/07/04 01:33:17;;;;;;;17.02;6.93;;;21.80;56.10;;;;;;5050314;28;20025;-80
2022/07/04 01:35:43;;;;;;;;;;;21.80;56.10;;;;;;5054608;28;20029;-80
2022/07/04 01:38:09;;;;;;;8.30;7.00;;;21.80;55.50;;;;;;5061952;28;19948;-80
2022/07/04 01:40:35;;;;;;;9.07;6.68;;;21.80;56.10;;;;;;5062199;28;20371;-80
2022/07/04 01:43:01;;;;;;;11.07;6.55;;;21.80;56.50;;;;;;5052709;28;20478;-80
2022/07/04 01:45:27;;;;;;;12.57;7.85;;;21.80;56.40;;;;;;5034419;28;20389;-82
2022/07/04 01:47:52;;;;;;;9.75;7.35;;;21.80;56.50;;;;;;5034868;28;20047;-81
2022/07/04 01:50:18;;;;;;;13.38;7.88;;;21.80;56.70;;;;;;5033957;28;20060;-80
2022/07/04 01:52:45;;;;;;;8.10;6.88;;;21.90;56.60;;;;;;5052492;28;20501;-81
2022/07/04 01:55:12;;;;;;;8.48;6.20;;;22.00;56.50;;;;;;5033974;28;20025;-81
2022/07/04 01:57:38;;;;;;;9.13;6.68;;;22.00;56.30;;;;;;5041688;28;20017;-81
2022/07/04 02:02:51;;;;;;;;;;;22.10;56.60;;;;;;5047993;28;20056;-81
2022/07/04 02:05:16;;;;;;;9.43;7.63;;;22.10;55.90;;;;;;5052051;28;19904;-81
2022/07/04 02:07:43;;;;;;;10.32;6.43;;;22.00;56.60;;;;;;5052037;28;20025;-82
2022/07/04 02:10:09;;;;;;;10.90;7.07;;;22.00;56.80;;;;;;5051914;28;20106;-82
2022/07/04 02:15:20;;;;;;;7.82;7.00;;;22.10;57.10;;;;;;5051945;28;20020;-83
2022/07/04 02:17:45;;;;;;;10.63;6.50;;;22.10;57.20;;;;;;5051874;28;20021;-83
2022/07/04 02:20:11;;;;;;;9.68;7.10;;;22.10;57.30;;;;;;5051521;28;20107;-82
2022/07/04 02:22:37;;;;;;;9.93;6.97;;;22.20;57.10;;;;;;5052020;28;20017;-81
2022/07/04 02:25:03;;;;;;;7.50;6.40;;;22.20;57.00;;;;;;5053202;28;20067;-79
2022/07/04 02:27:29;;;;;;;7.55;6.85;;;22.30;57.00;;;;;;5046444;28;20025;-81
2022/07/04 02:29:55;;;;;;;8.05;6.55;;;22.20;57.00;;;;;;5054222;28;20029;-82
2022/07/04 02:32:21;;;;;;;9.88;6.00;;;22.30;57.10;;;;;;5056971;28;20117;-81
2022/07/04 02:34:47;;;;;;;8.35;6.43;;;22.30;56.90;;;;;;5031164;28;20124;-82
2022/07/04 02:37:13;;;;;;;8.85;6.85;;;22.30;57.00;;;;;;5053578;28;20033;-82
2022/07/04 02:39:38;;;;;;;8.77;6.82;;;22.30;56.90;;;;;;5034753;28;20027;-82
2022/07/04 02:42:05;;;;;;;7.70;5.70;;;22.30;56.80;;;;;;5052100;28;20095;-81
2022/07/04 02:44:30;;;;;;;9.18;6.85;;;22.40;57.00;;;;;;5052522;28;20021;-80
2022/07/04 02:46:56;;;;;;;15.82;6.40;;;22.40;57.00;;;;;;5051686;28;20375;-82
2022/07/04 02:49:22;;;;;;;7.13;6.15;;;22.40;57.00;;;;;;5051940;28;20049;-81
2022/07/04 02:51:48;;;;;;;7.25;6.47;;;22.50;57.00;;;;;;5051451;28;20041;-81
2022/07/04 02:54:14;;;;;;;9.27;6.35;;;22.50;56.70;;;;;;5034262;28;20035;-81
2022/07/04 02:56:40;;;;;;;9.55;6.90;;;22.60;56.90;;;;;;5052547;28;20025;-81
2022/07/04 02:59:06;;;;;;;11.15;5.43;;;22.70;57.10;;;;;;5052810;28;20013;-80
2022/07/04 03:01:32;;;;;;;11.88;6.03;;;22.80;56.90;;;;;;5049993;28;20051;-82
2022/07/04 03:03:57;;;;;;;8.00;6.45;;;22.80;56.70;;;;;;5033858;28;20068;-81
2022/07/04 03:06:23;;;;;;;8.57;6.35;;;23.00;56.60;;;;;;5052796;28;20033;-82
2022/07/04 03:08:49;;;;;;;7.65;6.05;;;23.10;56.30;;;;;;5057079;28;20021;-80
2022/07/04 03:11:15;;;;;;;9.65;6.80;;;23.30;56.40;;;;;;5056516;28;20040;-80
2022/07/04 03:13:41;;;;;;;11.63;5.97;;;23.50;55.70;;;;;;5055082;28;20029;-81
2022/07/04 03:16:07;;;;;;;9.10;6.30;;;23.50;55.30;;;;;;5054726;28;20031;-80
2022/07/04 03:18:32;;;;;;;9.52;6.30;;;23.60;55.20;;;;;;5054909;28;20049;-80
2022/07/04 03:20:58;;;;;;;8.20;6.15;;;23.70;54.90;;;;;;5055019;28;20049;-80
2022/07/04 03:23:24;;;;;;;7.20;6.50;;;23.70;54.90;;;;;;5055020;28;20020;-82
2022/07/04 03:25:50;;;;;;;12.48;7.03;;;23.70;55.10;;;;;;5055011;28;20053;-81
2022/07/04 03:28:16;;;;;;;10.15;6.40;;;23.90;55.10;;;;;;5054606;28;20032;-80
2022/07/04 03:30:42;;;;;;;10.30;6.45;;;23.90;55.10;;;;;;5054644;28;20025;-80
2022/07/04 03:33:08;;;;;;;7.22;6.53;;;23.90;55.00;;;;;;5054724;28;20021;-80
2022/07/04 03:35:33;;;;;;;8.82;6.38;;;24.00;55.20;;;;;;5036882;28;20102;-81
2022/07/04 03:37:59;;;;;;;11.10;6.10;;;24.00;55.50;;;;;;5054723;28;20021;-81
2022/07/04 03:40:30;;;;;;;15.40;6.90;;;24.00;55.40;;;;;;5054809;28;20017;-80
2022/07/04 03:42:58;;;;;;;10.85;7.05;;;24.10;55.10;;;;;;5036836;28;20032;-80
2022/07/04 03:45:25;;;;;;;;;;;24.20;54.80;;;;;;5054755;28;20033;-80
2022/07/04 03:47:51;;;;;;;8.40;6.13;;;24.30;54.60;;;;;;5054564;28;19980;-81
2022/07/04 03:50:17;;;;;;;10.27;7.07;;;24.40;54.90;;;;;;5054356;28;20033;-80
2022/07/04 03:52:43;;;;;;;7.78;6.40;;;24.50;54.80;;;;;;5036462;28;20057;-80
2022/07/04 03:55:09;;;;;;;11.38;7.10;;;24.60;54.60;;;;;;5053965;28;20102;-82
2022/07/04 03:57:35;;;;;;;9.63;6.82;;;24.70;54.20;;;;;;5054339;28;20536;-80
2022/07/04 04:00:02;;;;;;;8.88;6.45;;;24.80;53.90;;;;;;5054259;28;20075;-80
2022/07/04 04:02:27;;;;;;;10.40;7.75;;;24.90;53.80;;;;;;5053733;28;20088;-80
2022/07/04 04:07:37;;;;;;;10.48;6.32;;;24.90;53.70;;;;;;5053112;28;20055;-82
2022/07/04 04:10:04;;;;;;;9.82;5.72;;;25.00;53.80;;;;;;5054003;28;20504;-83
2022/07/04 04:12:29;;;;;;;8.48;7.35;;;25.00;54.40;;;;;;5054582;28;20150;-82
2022/07/04 04:14:55;;;;;;;9.63;6.95;;;25.10;54.00;;;;;;5054365;28;20052;-80
2022/07/04 04:17:21;;;;;;;13.15;7.47;;;25.10;53.90;;;;;;5053568;28;20036;-81
2022/07/04 04:19:46;;;;;;;11.55;7.78;;;25.20;53.90;;;;;;5035976;28;20023;-81
2022/07/04 04:22:13;;;;;;;10.43;8.60;;;25.40;53.90;;;;;;5057193;28;20055;-82
2022/07/04 04:24:39;;;;;;;8.82;7.35;;;25.50;53.40;;;;;;5052624;28;20025;-79
2022/07/04 04:27:05;;;;;;;10.30;7.13;;;25.60;53.00;;;;;;5057917;28;20518;-80
2022/07/04 04:29:31;;;;;;;9.50;7.40;;;25.60;53.00;;;;;;5053529;28;20017;-79
2022/07/04 04:31:57;;;;;;;9.48;6.75;;;25.50;53.20;;;;;;5053647;28;20060;-79
2022/07/04 04:34:22;;;;;;;11.77;6.90;;;25.50;53.20;;;;;;5050188;28;20074;-82
2022/07/04 04:36:48;;;;;;;8.02;6.57;;;25.60;53.40;;;;;;5054091;28;20028;-81
2022/07/04 04:39:14;;;;;;;8.45;7.13;;;25.60;53.80;;;;;;5053834;28;20028;-81
2022/07/04 04:41:40;;;;;;;10.10;7.00;;;25.70;53.50;;;;;;5053584;28;20151;-82
2022/07/04 04:44:06;;;;;;;10.20;6.90;;;25.80;53.90;;;;;;5035717;28;20127;-81
2022/07/04 04:46:32;;;;;;;7.88;6.90;;;25.90;53.00;;;;;;5053314;28;20040;-81
2022/07/04 04:48:58;;;;;;;10.48;6.90;;;26.00;52.90;;;;;;5035110;28;20021;-80
2022/07/04 04:51:24;;;;;;;13.57;6.90;;;26.00;52.80;;;;;;5053390;28;20055;-81
2022/07/04 04:53:50;;;;;;;14.68;6.22;;;26.10;53.00;;;;;;5053224;28;20025;-81
2022/07/04 04:56:15;;;;;;;10.18;6.80;;;26.20;52.80;;;;;;5053184;28;20033;-81
2022/07/04 04:58:41;;;;;;;10.40;6.75;;;26.30;52.40;;;;;;5052951;28;20021;-81
2022/07/04 05:01:07;;;;;;;12.27;7.50;;;26.30;52.10;;;;;;5052458;28;20063;-81
2022/07/04 05:03:33;;;;;;;16.15;8.80;;;26.40;52.00;;;;;;5052942;28;20116;-80
2022/07/04 05:05:59;;;;;;;9.30;6.63;;;26.50;52.50;;;;;;5053563;28;20017;-80
2022/07/04 05:08:25;;;;;;;13.32;7.20;;;26.50;51.90;;;;;;5035303;28;20431;-82
2022/07/04 05:10:52;;;;;;;9.73;6.23;;;26.60;51.50;;;;;;5054667;28;20025;-81
2022/07/04 05:13:19;;;;;;;11.82;7.50;;;26.60;51.50;;;;;;5053557;28;20610;-82
2022/07/04 05:15:46;;;;;;;11.85;6.22;;;27.00;51.30;;;;;;5052786;28;20025;-81
2022/07/04 05:18:13;;;;;;;10.68;5.93;;;28.30;49.50;;;;;;5037722;28;20087;-82
2022/07/04 05:20:39;;;;;;;9.05;6.13;;;28.40;48.80;;;;;;5057762;28;20179;-82
2022/07/04 05:23:05;;;;;;;8.73;5.95;;;29.70;46.60;;;;;;5056573;28;20084;-81
2022/07/04 05:25:32;;;;;;;7.68;6.18;;;30.10;45.70;;;;;;5058353;28;20056;-82
2022/07/04 05:27:58;;;;;;;10.32;6.35;;;30.70;44.40;;;;;;5053852;28;20032;-82
2022/07/04 05:30:24;;;;;;;9.93;5.95;;;30.90;43.70;;;;;;5052331;28;20037;-83
2022/07/04 05:32:50;;;;;;;7.63;6.18;;;31.40;43.80;;;;;;5052706;28;20107;-81
2022/07/04 05:35:16;;;;;;;10.20;5.80;;;32.20;42.70;;;;;;5034533;28;20587;-82
2022/07/04 05:37:43;;;;;;;8.97;6.27;;;32.60;42.00;;;;;;5034597;28;20864;-81
2022/07/04 05:40:10;;;;;;;9.02;6.57;;;33.10;41.40;;;;;;5052159;28;20025;-82
2022/07/04 05:42:36;;;;;;;14.88;8.00;;;33.90;40.30;;;;;;5052374;28;20710;-82
2022/07/04 05:45:02;;;;;;;10.33;6.63;;;34.50;39.30;;;;;;5053527;28;20024;-83
2022/07/04 05:47:28;;;;;;;12.30;8.60;;;34.60;39.40;;;;;;5036278;28;20395;-82
2022/07/04 05:49:53;;;;;;;8.83;5.07;;;34.70;39.10;;;;;;5052711;28;20033;-82
2022/07/04 05:52:19;;;;;;;7.63;4.93;;;35.00;38.40;;;;;;5052010;28;20098;-82
2022/07/04 05:54:48;;;;;;;6.73;5.27;;;35.40;38.20;;;;;;5051988;28;20032;-81
2022/07/04 05:57:14;;;;;;;6.50;4.75;;;36.20;37.40;;;;;;5046151;28;20137;-83
2022/07/04 05:59:40;;;;;;;11.60;5.70;;;37.00;36.30;;;;;;5051938;28;20049;-82
2022/07/04 06:02:06;;;;;;;8.60;5.63;;;;;;;;;;5051367;28;20041;-82
2022/07/04 06:04:32;;;;;;;9.43;5.57;;;38.00;34.40;;;;;;5052405;28;20021;-83
2022/07/04 06:06:57;;;;;;;6.47;5.47;;;38.30;34.70;;;;;;5052471;28;20102;-81
2022/07/04 06:09:23;;;;;;;9.33;5.90;;;38.40;34.40;;;;;;5055538;28;20025;-81
2022/07/04 06:11:49;;;;;;;5.55;4.70;;;38.30;34.40;;;;;;5054465;28;20041;-82
2022/07/04 06:14:15;;;;;;;8.30;4.70;;;38.20;34.40;;;;;;5052387;28;20031;-82
2022/07/04 06:16:40;;;;;;;11.00;7.00;;;38.20;34.60;;;;;;5053582;28;20021;-83
2022/07/04 06:19:06;;;;;;;7.10;5.07;;;38.30;34.40;;;;;;5053590;28;20059;-83
2022/07/04 06:21:32;;;;;;;9.83;5.40;;;38.00;34.70;;;;;;5053147;28;20262;-84
2022/07/04 06:23:58;;;;;;;8.02;5.57;;;37.80;34.50;;;;;;5029555;28;20013;-83
2022/07/04 06:26:24;;;;;;;8.73;4.72;;;38.10;34.20;;;;;;5035962;28;20545;-81
2022/07/04 06:28:50;;;;;;;8.73;5.07;;;39.10;33.80;;;;;;5039229;28;20063;-83
2022/07/04 06:31:16;;;;;;;6.13;4.05;;;40.80;32.80;;;;;;5055365;28;20696;-83
2022/07/04 06:36:26;;;;;;;5.10;4.60;;;42.00;31.00;;;;;;5051964;28;20032;-82
2022/07/04 06:38:52;;;;;;;6.38;4.15;;;42.10;30.50;;;;;;5054293;28;20033;-81
2022/07/04 06:41:18;;;;;;;6.75;3.90;;;41.90;30.50;;;;;;5055001;28;20036;-81
2022/07/04 06:43:43;;;;;;;4.82;3.88;;;42.60;30.50;;;;;;5057850;28;20043;-81
2022/07/04 06:46:09;;;;;;;6.60;4.30;;;43.60;30.00;;;;;;5057653;28;20493;-80
2022/07/04 06:48:36;;;;;;;4.32;3.92;;;44.30;29.50;;;;;;5058002;28;20021;-83
2022/07/04 06:51:02;;;;;;;7.28;3.97;;;44.50;29.20;;;;;;5058465;28;20432;-79
2022/07/04 06:53:28;;;;;;;6.93;4.85;;;45.30;29.20;;;;;;5055423;28;20021;-79
2022/07/04 06:55:53;;;;;;;9.48;5.28;;;45.70;28.80;;;;;;5055016;28;20028;-82
2022/07/04 06:58:19;;;;;;;7.72;4.72;;;45.20;28.80;;;;;;5039797;28;20386;-79
2022/07/04 07:00:45;;;;;;;;;;;45.10;28.80;;;;;;5051811;28;20101;-82
2022/07/04 07:03:12;;;;;;;7.35;4.13;;;;;;;;;;5043787;28;19909;-81
2022/07/04 07:05:38;;;;;;;6.88;4.43;;;45.10;28.40;;;;;;5064003;28;20073;-80
2022/07/04 07:08:04;;;;;;;7.03;4.97;;;45.60;28.70;;;;;;5061390;28;20437;-82
2022/07/04 07:10:32;;;;;;;5.93;3.83;;;45.70;28.60;;;;;;5048780;28;20033;-81
2022/07/04 07:12:58;;;;;;;11.63;6.50;;;45.50;28.20;;;;;;5047765;28;20021;-82
2022/07/04 07:15:24;;;;;;;7.50;5.72;;;44.80;28.50;;;;;;5031760;28;20112;-82
2022/07/04 07:17:50;;;;;;;10.00;6.90;;;44.90;28.60;;;;;;5058153;28;20056;-80
2022/07/04 07:20:16;;;;;;;8.43;3.97;;;44.70;28.60;;;;;;5061170;28;20394;-82
2022/07/04 07:22:42;;;;;;;7.07;4.10;;;44.60;28.50;;;;;;5060257;28;20033;-80
2022/07/04 07:25:10;;;;;;;4.13;3.80;;;44.80;28.50;;;;;;5056924;28;20053;-78
2022/07/04 07:27:36;;;;;;;6.18;4.25;;;44.50;28.00;;;;;;5053813;28;20017;-80
2022/07/04 07:30:03;;;;;;;6.30;4.25;;;44.80;28.00;;;;;;5060134;28;20382;-81
2022/07/04 07:32:29;;;;;;;5.68;4.15;;;45.80;28.20;;;;;;5058319;28;20017;-83
2022/07/04 07:34:55;;;;;;;9.15;4.97;;;46.70;27.90;;;;;;5058211;28;20494;-84
2022/07/04 07:37:22;;;;;;;5.85;4.20;;;46.60;27.20;;;;;;5059068;28;20163;-83
2022/07/04 07:39:48;;;;;;;4.68;3.40;;;46.10;27.20;;;;;;5060484;28;20025;-81
2022/07/04 07:42:15;;;;;;;3.70;3.40;;;46.00;26.80;;;;;;5042769;28;20044;-82
2022/07/04 07:44:41;;;;;;;5.22;3.25;;;46.50;26.40;;;;;;5058567;28;20033;-82
2022/07/04 07:47:07;;;;;;;8.73;3.47;;;46.60;26.70;;;;;;5057821;28;20017;-83
2022/07/04 07:49:33;;;;;;;6.80;3.40;;;46.60;26.70;;;;;;5059330;28;20029;-84
2022/07/04 07:51:59;;;;;;;6.15;3.83;;;46.10;26.40;;;;;;5058570;28;20090;-84
2022/07/04 07:54:24;;;;;;;3.97;3.58;;;45.60;26.90;;;;;;5057015;28;20018;-83
2022/07/04 07:56:50;;;;;;;6.18;4.55;;;45.90;27.30;;;;;;5057254;28;20474;-83
2022/07/04 07:59:17;;;;;;;8.35;4.47;;;45.70;27.20;;;;;;5057548;28;20025;-84
2022/07/04 08:01:42;;;;;;;6.40;3.88;;;45.40;27.30;;;;;;5038787;28;20049;-83
2022/07/04 08:06:52;;;;;;;3.95;3.63;;;46.20;27.20;;;;;;5057576;28;20040;-83
2022/07/04 08:09:18;;;;;;;5.35;4.40;;;46.70;26.70;;;;;;5039725;28;20050;-84
2022/07/04 08:11:44;;;;;;;6.57;4.25;;;46.20;27.00;;;;;;5059163;28;20057;-82
2022/07/04 08:14:10;;;;;;;8.63;4.75;;;45.20;27.10;;;;;;5060945;28;20021;-83
2022/07/04 08:16:36;;;;;;;4.93;4.43;;;44.10;27.90;;;;;;5063005;28;20032;-81
2022/07/04 08:19:03;;;;;;;7.03;4.90;;;43.30;28.30;;;;;;5043818;28;20113;-83
2022/07/04 08:21:29;;;;;;;9.07;4.93;;;42.60;29.10;;;;;;5059691;28;20532;-83
2022/07/04 08:23:54;;;;;;;5.45;4.40;;;42.90;28.90;;;;;;5058375;28;20371;-82
2022/07/04 08:26:20;;;;;;;5.57;5.00;;;43.70;28.70;;;;;;5058097;28;20025;-84
2022/07/04 08:28:46;;;;;;;7.22;4.93;;;44.00;28.40;;;;;;5056899;28;20025;-85
2022/07/04 08:31:12;;;;;;;10.10;5.43;;;43.70;28.70;;;;;;5056529;28;20080;-82
2022/07/04 08:33:38;;;;;;;5.80;4.88;;;44.10;28.40;;;;;;5057807;28;20029;-83
2022/07/04 08:36:04;;;;;;;5.20;4.70;;;43.90;28.40;;;;;;5057328;28;20029;-84
2022/07/04 08:38:30;;;;;;;7.95;5.70;;;43.60;28.70;;;;;;5056677;28;20390;-82
2022/07/04 08:40:58;;;;;;;5.68;5.10;;;43.80;28.70;;;;;;5057327;28;20099;-83
2022/07/04 08:43:25;;;;;;;7.38;5.28;;;43.70;28.90;;;;;;5056953;28;20017;-83
2022/07/04 08:45:55;;;;;;;7.45;5.63;;;44.00;28.80;;;;;;5055405;28;20021;-83
2022/07/04 08:48:27;;;;;;;7.03;5.97;;;43.90;28.70;;;;;;5057836;28;20040;-84
2022/07/04 08:50:59;;;;;;;7.78;6.43;;;44.40;28.80;;;;;;5046167;28;20812;-85
2022/07/04 08:53:30;;;;;;;7.93;5.60;;;45.80;29.00;;;;;;5042895;28;20032;-84
2022/07/04 08:58:43;;;;;;;8.98;5.53;;;45.80;27.80;;;;;;5060300;28;20040;-82
2022/07/04 09:01:17;;;;;;;11.77;5.30;;;46.10;27.80;;;;;;5061392;28;20096;-82
2022/07/04 09:03:44;;;;;;;9.13;5.55;;;46.30;27.80;;;;;;5041728;28;20032;-83
2022/07/04 09:06:13;;;;;;;7.45;5.10;;;46.60;27.40;;;;;;5038162;28;20021;-85
2022/07/04 09:08:39;;;;;;;5.32;4.82;;;47.20;27.40;;;;;;5038850;28;20021;-83
2022/07/04 09:11:06;;;;;;;6.15;5.10;;;47.70;27.00;;;;;;5036064;28;20056;-85
2022/07/04 09:13:32;;;;;;;5.30;4.78;;;47.30;26.80;;;;;;5050578;28;20025;-84
2022/07/04 09:15:58;;;;;;;6.30;5.03;;;46.60;26.90;;;;;;5066935;28;20035;-83
2022/07/04 09:18:25;;;;;;;6.80;5.63;;;46.60;27.30;;;;;;5051557;28;20043;-83
2022/07/04 09:20:53;;;;;;;6.22;5.72;;;46.70;27.30;;;;;;5068841;28;20191;-83
2022/07/04 09:23:24;;;;;;;8.07;6.05;;;47.00;27.40;;;;;;5062907;28;20025;-81
2022/07/04 09:26:09;;;;;;;8.38;6.03;;;47.40;27.20;;;;;;5062887;28;20025;-83
2022/07/04 09:28:35;;;;;;;7.47;5.05;;;46.90;27.40;;;;;;5059434;28;20013;-83
2022/07/04 09:31:01;;;;;;;6.82;5.43;;;45.80;27.70;;;;;;5042919;28;20379;-85
2022/07/04 09:33:51;;;;;;;8.35;5.28;;;45.60;27.70;;;;;;5062621;28;20055;-82
2022/07/04 09:36:22;;;;;;;5.90;5.20;;;45.50;27.90;;;;;;5063342;28;20017;-83
2022/07/04 09:39:15;;;;;;;5.07;4.60;;;45.60;27.70;;;;;;5045021;28;20043;-83
2022/07/04 09:42:00;;;;;;;10.40;7.28;;;45.80;27.90;;;;;;5053555;28;20048;-82
2022/07/04 09:44:45;;;;;;;6.85;4.78;;;45.70;28.00;;;;;;5038516;28;20071;-85
2022/07/04 09:47:22;;;;;;;5.80;5.30;;;44.60;27.60;;;;;;5057220;28;20082;-84
2022/07/04 09:50:13;;;;;;;6.45;5.35;;;43.60;28.10;;;;;;5059262;28;20036;-82
2022/07/04 09:52:50;;;;;;;6.65;5.95;;;42.60;29.00;;;;;;5058955;28;20037;-83
2022/07/04 09:55:27;;;;;;;7.85;6.07;;;42.40;29.30;;;;;;5041129;28;20051;-82
2022/07/04 09:57:55;;;;;;;7.07;6.45;;;42.40;29.60;;;;;;5045248;28;20124;-82
2022/07/04 10:00:27;;;;;;;5.82;5.07;;;43.30;29.30;;;;;;5062562;28;20035;-83
2022/07/04 10:02:54;;;;;;;5.18;4.70;;;44.50;28.70;;;;;;5041331;28;20037;-84
2022/07/04 10:05:25;;;;;;;5.75;5.25;;;44.90;28.30;;;;;;5048224;28;20097;-81
2022/07/04 10:07:51;;;;;;;7.47;4.85;;;44.00;28.40;;;;;;5022613;28;20033;-85
2022/07/04 10:10:30;;;;;;;6.55;5.85;;;43.20;28.70;;;;;;5049338;28;20033;-83
2022/07/04 10:13:04;;;;;;;5.38;4.70;;;42.10;29.30;;;;;;5040087;28;20017;-84
2022/07/04 10:15:33;;;;;;;5.80;5.20;;;41.80;29.80;;;;;;5057735;28;20056;-85
2022/07/04 10:18:00;;;;;;;7.07;5.30;;;42.80;29.20;;;;;;5017345;28;20474;-83
2022/07/04 10:20:26;;;;;;;5.30;4.80;;;43.10;28.80;;;;;;5036944;28;20479;-82
2022/07/04 10:22:52;;;;;;;6.65;4.38;;;43.00;28.80;;;;;;5035909;28;20040;-84
2022/07/04 10:25:18;;;;;;;6.70;4.90;;;42.90;28.90;;;;;;5045983;28;20013;-83
2022/07/04 10:27:44;;;;;;;5.88;5.28;;;43.20;28.40;;;;;;5056048;28;20367;-83
2022/07/04 10:30:13;;;;;;;5.65;5.15;;;42.80;28.40;;;;;;5057154;28;20463;-83
2022/07/04 10:32:43;;;;;;;5.20;4.80;;;41.10;29.60;;;;;;5058008;28;20470;-85
2022/07/04 10:35:12;;;;;;;6.28;5.68;;;39.20;30.30;;;;;;5048516;28;20017;-83
2022/07/04 10:38:09;;;;;;;6.10;5.53;;;37.50;31.70;;;;;;5051053;28;20021;-81
2022/07/04 10:40:52;;;;;;;6.10;5.50;;;36.20;33.00;;;;;;5032022;28;20479;-82
2022/07/04 10:43:42;;;;;;;6.63;5.55;;;35.00;34.10;;;;;;5034847;28;20022;-83
2022/07/04 10:46:19;;;;;;;7.15;5.60;;;34.30;35.30;;;;;;5028650;28;20042;-84
2022/07/04 10:48:53;;;;;;;7.88;5.80;;;33.90;36.10;;;;;;5058355;28;20388;-84
2022/07/04 10:51:45;;;;;;;6.47;5.50;;;33.60;36.50;;;;;;5037325;28;20056;-87
2022/07/04 10:54:18;;;;;;;7.07;6.03;;;33.50;36.80;;;;;;5054335;28;20021;-85
2022/07/04 10:56:48;;;;;;;6.97;6.40;;;33.00;37.70;;;;;;5057180;28;20074;-83
2022/07/04 10:59:20;;;;;;;7.38;5.65;;;32.70;37.50;;;;;;5050919;28;20032;-83
2022/07/04 11:02:13;;;;;;;6.90;6.00;;;32.50;38.10;;;;;;5039219;28;20121;-84
2022/07/04 11:04:58;;;;;;;5.78;5.15;;;32.40;38.30;;;;;;5012609;28;20126;-83
2022/07/04 11:07:30;;;;;;;9.52;6.28;;;32.40;38.40;;;;;;5054909;28;20029;-82
2022/07/04 11:10:21;;;;;;;7.60;6.57;;;32.30;38.60;;;;;;5037766;28;20063;-82
2022/07/04 11:12:53;;;;;;;9.32;6.25;;;32.10;39.20;;;;;;5058860;28;20435;-84
2022/07/04 11:15:28;;;;;;;9.45;5.93;;;32.10;39.50;;;;;;5043790;28;20025;-83
2022/07/04 11:17:55;;;;;;;9.48;6.72;;;32.10;39.00;;;;;;5057599;28;20112;-84
2022/07/04 11:20:22;;;;;;;7.65;6.40;;;32.10;39.20;;;;;;5057357;28;20021;-82
2022/07/04 11:22:48;;;;;;;6.57;6.00;;;32.20;38.90;;;;;;5011785;28;20024;-84
2022/07/04 11:25:15;;;;;;;7.30;6.57;;;32.20;39.00;;;;;;5057705;28;20021;-83
2022/07/04 11:27:41;;;;;;;11.00;6.70;;;32.20;39.20;;;;;;5058553;28;20025;-83
2022/07/04 11:30:08;;;;;;;7.30;6.68;;;32.20;39.60;;;;;;5043196;28;20067;-82
2022/07/04 11:32:36;;;;;;;7.15;6.45;;;32.00;39.50;;;;;;5061040;28;20025;-82
2022/07/04 11:35:04;;;;;;;10.32;6.95;;;31.90;40.20;;;;;;5031320;28;20025;-83
2022/07/04 11:37:30;;;;;;;7.63;6.93;;;31.80;39.50;;;;;;5058307;28;20032;-81
2022/07/04 11:45:49;;;;;;;8.25;6.68;;;31.70;39.50;;;;;;5061631;28;20039;-83
2022/07/04 11:48:27;;;;;;;;;;;31.80;39.30;;;;;;5061298;28;20025;-83
2022/07/04 11:50:54;;;;;;;7.38;6.68;;;31.90;38.80;;;;;;5033052;28;19916;-83
2022/07/04 11:53:20;;;;;;;9.35;6.35;;;32.00;39.70;;;;;;5059670;28;20046;-82
2022/07/04 11:56:00;;;;;;;7.03;6.33;;;32.00;39.00;;;;;;5054556;28;20037;-83
2022/07/04 11:58:42;;;;;;;7.65;6.57;;;31.80;38.30;;;;;;5050374;28;20029;-82
2022/07/04 12:01:28;;;;;;;7.43;6.57;;;31.50;39.50;;;;;;5046822;28;20033;-83
2022/07/04 12:03:53;;;;;;;9.68;7.00;;;31.50;39.80;;;;;;5059475;28;20114;-83
2022/07/04 12:06:19;;;;;;;7.45;6.72;;;31.40;40.30;;;;;;5058993;28;20025;-83
2022/07/04 12:08:46;;;;;;;8.02;7.32;;;31.40;40.60;;;;;;5059905;28;20045;-84
2022/07/04 12:11:12;;;;;;;9.57;6.80;;;31.40;40.70;;;;;;5059666;28;20499;-83
2022/07/04 12:13:37;;;;;;;9.85;6.63;;;31.40;40.90;;;;;;5040464;28;20029;-82
2022/07/04 12:16:11;;;;;;;9.82;7.28;;;31.40;40.90;;;;;;5057193;28;20418;-83
2022/07/04 12:18:37;;;;;;;6.93;5.93;;;31.40;40.60;;;;;;5037849;28;20029;-84
2022/07/04 12:21:17;;;;;;;9.07;6.70;;;31.30;40.70;;;;;;5055391;28;20024;-82
2022/07/04 12:23:54;;;;;;;9.65;7.25;;;31.30;40.50;;;;;;5055519;28;20021;-83
2022/07/04 12:26:20;;;;;;;7.85;7.05;;;31.10;40.60;;;;;;5056729;28;20025;-83
2022/07/04 12:28:46;;;;;;;6.07;5.57;;;30.80;40.90;;;;;;5060505;28;20524;-83
2022/07/04 12:31:12;;;;;;;9.07;6.30;;;30.70;41.10;;;;;;5042781;28;20037;-82
2022/07/04 12:33:37;;;;;;;8.45;6.90;;;30.70;41.20;;;;;;5058201;28;20381;-84
2022/07/04 12:36:06;;;;;;;7.68;6.88;;;30.60;41.40;;;;;;5040980;28;20036;-85
2022/07/04 12:38:37;;;;;;;11.23;7.68;;;30.60;41.70;;;;;;5059761;28;20101;-84
2022/07/04 12:41:08;;;;;;;9.95;6.85;;;30.60;42.20;;;;;;5061556;28;20025;-82
2022/07/04 12:43:43;;;;;;;7.20;6.50;;;30.60;41.70;;;;;;5066879;28;20052;-84
2022/07/04 12:46:32;;;;;;;9.93;7.03;;;30.60;41.40;;;;;;5058921;28;20020;-82
2022/07/04 12:48:59;;;;;;;7.63;7.03;;;30.80;41.80;;;;;;5055409;28;20009;-83
2022/07/04 12:51:31;;;;;;;6.53;5.97;;;31.00;41.70;;;;;;5037828;28;20037;-83
2022/07/04 12:54:09;;;;;;;6.72;6.05;;;31.00;41.40;;;;;;5055294;28;20041;-83
2022/07/04 12:56:43;;;;;;;11.52;6.85;;;31.10;41.00;;;;;;5037281;28;20021;-82
2022/07/04 12:59:16;;;;;;;8.38;6.50;;;31.30;41.30;;;;;;5055197;28;20020;-82
2022/07/04 13:01:43;;;;;;;8.95;5.80;;;31.40;41.20;;;;;;5055075;28;20491;-82
2022/07/04 13:04:10;;;;;;;8.07;7.28;;;31.60;40.40;;;;;;5055472;28;20075;-83
2022/07/04 13:06:36;;;;;;;8.48;6.97;;;31.60;40.20;;;;;;5039533;28;20543;-83
2022/07/04 13:09:04;;;;;;;6.60;6.00;;;31.60;40.40;;;;;;5057152;28;20094;-83
2022/07/04 13:14:14;;;;;;;9.60;7.32;;;31.60;40.70;;;;;;5057551;28;20048;-82
2022/07/04 13:16:39;;;;;;;7.57;6.35;;;31.70;40.30;;;;;;5039190;28;20032;-83